sensor_id;sensor_type;location;lat;lon;timestamp;P1;durP1;ratioP1;P2;durP2;ratioP2
10389;SDS011;5241;47.830;12.972;2022-10-22T00:01:47;3.57;;;2.57;;
10389;SDS011;5241;47.830;12.972;2022-10-22T00:04:13;5.13;;;3.00;;
10389;SDS011;5241;47.830;12.972;2022-10-22T00:06:38;6.30;;;2.40;;
10389;SDS011;5241;47.830;12.972;2022-10-22T00:09:06;4.77;;;2.60;;
10389;SDS011;5241;47.830;12.972;2022-10-22T00:11:32;3.97;;;2.93;;
10389;SDS011;5241;47.830;12.972;2022-10-22T00:13:57;4.17;;;2.53;;
10389;SDS011;5241;47.830;12.972;2022-10-22T00:16:23;5.63;;;2.93;;
10389;SDS011;5241;47.830;12.972;2022-10-22T00:18:49;6.47;;;3.00;;
10389;SDS011;5241;47.830;12.972;2022-10-22T00:21:14;4.93;;;3.20;;
10389;SDS011;5241;47.830;12.972;2022-10-22T00:23:41;5.07;;;3.17;;
10389;SDS011;5241;47.830;12.972;2022-10-22T00:26:07;3.90;;;2.97;;
10389;SDS011;5241;47.830;12.972;2022-10-22T00:28:33;4.60;;;3.03;;
10389;SDS011;5241;47.830;12.972;2022-10-22T00:30:59;3.47;;;2.93;;
10389;SDS011;5241;47.830;12.972;2022-10-22T00:33:26;6.63;;;3.33;;
10389;SDS011;5241;47.830;12.972;2022-10-22T00:35:53;4.53;;;3.10;;
10389;SDS011;5241;47.830;12.972;2022-10-22T00:38:18;6.53;;;3.60;;
10389;SDS011;5241;47.830;12.972;2022-10-22T00:40:44;4.73;;;3.40;;
10389;SDS011;5241;47.830;12.972;2022-10-22T00:43:11;9.03;;;3.50;;
10389;SDS011;5241;47.830;12.972;2022-10-22T00:45:38;6.07;;;2.97;;
10389;SDS011;5241;47.830;12.972;2022-10-22T00:48:04;8.63;;;3.40;;
10389;SDS011;5241;47.830;12.972;2022-10-22T00:50:36;5.10;;;2.97;;
10389;SDS011;5241;47.830;12.972;2022-10-22T00:53:07;5.97;;;3.30;;
10389;SDS011;5241;47.830;12.972;2022-10-22T00:55:41;6.03;;;3.83;;
10389;SDS011;5241;47.830;12.972;2022-10-22T00:58:09;5.27;;;3.20;;
10389;SDS011;5241;47.830;12.972;2022-10-22T01:00:36;7.40;;;3.30;;
10389;SDS011;5241;47.830;12.972;2022-10-22T01:03:02;7.30;;;3.13;;
10389;SDS011;5241;47.830;12.972;2022-10-22T01:05:28;5.40;;;3.20;;
10389;SDS011;5241;47.830;12.972;2022-10-22T01:07:56;6.27;;;3.43;;
10389;SDS011;5241;47.830;12.972;2022-10-22T01:10:27;4.93;;;3.20;;
10389;SDS011;5241;47.830;12.972;2022-10-22T01:13:21;8.10;;;3.47;;
10389;SDS011;5241;47.830;12.972;2022-10-22T01:18:36;5.83;;;3.80;;
10389;SDS011;5241;47.830;12.972;2022-10-22T01:21:14;4.70;;;3.13;;
10389;SDS011;5241;47.830;12.972;2022-10-22T01:29:38;4.30;;;3.37;;
10389;SDS011;5241;47.830;12.972;2022-10-22T01:32:09;4.03;;;3.20;;
10389;SDS011;5241;47.830;12.972;2022-10-22T01:34:38;5.57;;;3.37;;
10389;SDS011;5241;47.830;12.972;2022-10-22T01:37:06;5.63;;;3.27;;
10389;SDS011;5241;47.830;12.972;2022-10-22T01:39:33;4.10;;;2.97;;
10389;SDS011;5241;47.830;12.972;2022-10-22T01:42:01;6.77;;;3.40;;
10389;SDS011;5241;47.830;12.972;2022-10-22T01:44:28;7.20;;;3.57;;
10389;SDS011;5241;47.830;12.972;2022-10-22T01:47:07;5.20;;;3.43;;
10389;SDS011;5241;47.830;12.972;2022-10-22T01:50:03;5.47;;;3.37;;
10389;SDS011;5241;47.830;12.972;2022-10-22T01:58:13;4.00;;;3.03;;
10389;SDS011;5241;47.830;12.972;2022-10-22T02:01:04;6.70;;;3.93;;
10389;SDS011;5241;47.830;12.972;2022-10-22T02:03:48;10.13;;;4.00;;
10389;SDS011;5241;47.830;12.972;2022-10-22T02:06:20;7.97;;;4.23;;
10389;SDS011;5241;47.830;12.972;2022-10-22T02:08:48;7.00;;;4.10;;
10389;SDS011;5241;47.830;12.972;2022-10-22T02:11:16;5.70;;;4.30;;
10389;SDS011;5241;47.830;12.972;2022-10-22T02:13:42;12.23;;;4.00;;
10389;SDS011;5241;47.830;12.972;2022-10-22T02:16:16;4.57;;;3.87;;
10389;SDS011;5241;47.830;12.972;2022-10-22T02:18:46;6.63;;;4.40;;
10389;SDS011;5241;47.830;12.972;2022-10-22T02:21:16;7.07;;;4.30;;
10389;SDS011;5241;47.830;12.972;2022-10-22T02:23:41;6.37;;;3.90;;
10389;SDS011;5241;47.830;12.972;2022-10-22T02:26:21;6.77;;;4.13;;
10389;SDS011;5241;47.830;12.972;2022-10-22T02:28:57;9.27;;;3.70;;
10389;SDS011;5241;47.830;12.972;2022-10-22T02:31:56;6.67;;;3.97;;
10389;SDS011;5241;47.830;12.972;2022-10-22T02:34:26;10.70;;;3.77;;
10389;SDS011;5241;47.830;12.972;2022-10-22T02:36:54;6.20;;;4.17;;
10389;SDS011;5241;47.830;12.972;2022-10-22T02:39:21;5.23;;;3.37;;
10389;SDS011;5241;47.830;12.972;2022-10-22T02:41:48;5.90;;;3.93;;
10389;SDS011;5241;47.830;12.972;2022-10-22T02:44:13;4.57;;;3.73;;
10389;SDS011;5241;47.830;12.972;2022-10-22T02:46:39;5.23;;;3.80;;
10389;SDS011;5241;47.830;12.972;2022-10-22T02:49:07;4.80;;;3.47;;
10389;SDS011;5241;47.830;12.972;2022-10-22T02:51:32;5.03;;;3.37;;
10389;SDS011;5241;47.830;12.972;2022-10-22T02:53:58;6.10;;;3.93;;
10389;SDS011;5241;47.830;12.972;2022-10-22T02:56:24;6.70;;;4.13;;
10389;SDS011;5241;47.830;12.972;2022-10-22T02:58:49;7.80;;;4.23;;
10389;SDS011;5241;47.830;12.972;2022-10-22T03:01:15;5.53;;;3.53;;
10389;SDS011;5241;47.830;12.972;2022-10-22T03:03:40;4.23;;;3.27;;
10389;SDS011;5241;47.830;12.972;2022-10-22T03:06:06;6.67;;;3.73;;
10389;SDS011;5241;47.830;12.972;2022-10-22T03:08:32;4.83;;;3.30;;
10389;SDS011;5241;47.830;12.972;2022-10-22T03:10:57;6.63;;;3.63;;
10389;SDS011;5241;47.830;12.972;2022-10-22T03:13:23;5.70;;;3.30;;
10389;SDS011;5241;47.830;12.972;2022-10-22T03:15:48;7.30;;;2.70;;
10389;SDS011;5241;47.830;12.972;2022-10-22T03:18:14;6.67;;;2.70;;
10389;SDS011;5241;47.830;12.972;2022-10-22T03:20:40;5.57;;;2.87;;
10389;SDS011;5241;47.830;12.972;2022-10-22T03:23:06;4.60;;;2.60;;
10389;SDS011;5241;47.830;12.972;2022-10-22T03:25:31;3.23;;;2.60;;
10389;SDS011;5241;47.830;12.972;2022-10-22T03:28:00;3.83;;;2.30;;
10389;SDS011;5241;47.830;12.972;2022-10-22T03:30:29;4.83;;;2.00;;
10389;SDS011;5241;47.830;12.972;2022-10-22T03:32:54;3.63;;;2.57;;
10389;SDS011;5241;47.830;12.972;2022-10-22T03:35:20;5.20;;;2.30;;
10389;SDS011;5241;47.830;12.972;2022-10-22T03:37:46;2.50;;;1.97;;
10389;SDS011;5241;47.830;12.972;2022-10-22T03:40:12;3.67;;;2.20;;
10389;SDS011;5241;47.830;12.972;2022-10-22T03:42:39;5.83;;;2.17;;
10389;SDS011;5241;47.830;12.972;2022-10-22T03:45:05;3.13;;;1.93;;
10389;SDS011;5241;47.830;12.972;2022-10-22T03:47:31;2.43;;;2.00;;
10389;SDS011;5241;47.830;12.972;2022-10-22T03:49:57;2.50;;;1.93;;
10389;SDS011;5241;47.830;12.972;2022-10-22T03:52:23;6.17;;;2.73;;
10389;SDS011;5241;47.830;12.972;2022-10-22T03:54:48;2.70;;;2.10;;
10389;SDS011;5241;47.830;12.972;2022-10-22T03:57:14;3.17;;;2.00;;
10389;SDS011;5241;47.830;12.972;2022-10-22T03:59:40;2.90;;;1.90;;
10389;SDS011;5241;47.830;12.972;2022-10-22T04:02:08;3.07;;;1.87;;
10389;SDS011;5241;47.830;12.972;2022-10-22T04:04:34;3.13;;;1.90;;
10389;SDS011;5241;47.830;12.972;2022-10-22T04:07:00;4.50;;;2.00;;
10389;SDS011;5241;47.830;12.972;2022-10-22T04:09:26;3.07;;;1.93;;
10389;SDS011;5241;47.830;12.972;2022-10-22T04:11:51;4.63;;;2.00;;
10389;SDS011;5241;47.830;12.972;2022-10-22T04:14:17;2.73;;;1.97;;
10389;SDS011;5241;47.830;12.972;2022-10-22T04:16:42;2.17;;;1.97;;
10389;SDS011;5241;47.830;12.972;2022-10-22T04:19:08;5.57;;;2.33;;
10389;SDS011;5241;47.830;12.972;2022-10-22T04:21:34;2.43;;;1.80;;
10389;SDS011;5241;47.830;12.972;2022-10-22T04:23:59;5.73;;;2.30;;
10389;SDS011;5241;47.830;12.972;2022-10-22T04:26:25;3.33;;;1.90;;
10389;SDS011;5241;47.830;12.972;2022-10-22T04:28:51;2.63;;;1.80;;
10389;SDS011;5241;47.830;12.972;2022-10-22T04:31:18;2.33;;;1.70;;
10389;SDS011;5241;47.830;12.972;2022-10-22T04:33:45;2.30;;;2.10;;
10389;SDS011;5241;47.830;12.972;2022-10-22T04:36:12;4.00;;;2.20;;
10389;SDS011;5241;47.830;12.972;2022-10-22T04:38:39;2.03;;;1.77;;
10389;SDS011;5241;47.830;12.972;2022-10-22T04:41:13;3.10;;;2.10;;
10389;SDS011;5241;47.830;12.972;2022-10-22T04:43:41;4.50;;;2.37;;
10389;SDS011;5241;47.830;12.972;2022-10-22T04:46:09;6.70;;;2.37;;
10389;SDS011;5241;47.830;12.972;2022-10-22T04:48:36;4.40;;;2.73;;
10389;SDS011;5241;47.830;12.972;2022-10-22T04:51:03;4.83;;;3.07;;
10389;SDS011;5241;47.830;12.972;2022-10-22T04:53:30;4.50;;;3.30;;
10389;SDS011;5241;47.830;12.972;2022-10-22T04:56:05;7.20;;;5.20;;
10389;SDS011;5241;47.830;12.972;2022-10-22T04:58:53;7.30;;;4.57;;
10389;SDS011;5241;47.830;12.972;2022-10-22T05:01:24;5.83;;;4.40;;
10389;SDS011;5241;47.830;12.972;2022-10-22T05:03:52;7.40;;;5.40;;
10389;SDS011;5241;47.830;12.972;2022-10-22T05:06:19;7.17;;;5.30;;
10389;SDS011;5241;47.830;12.972;2022-10-22T05:08:47;8.83;;;5.37;;
10389;SDS011;5241;47.830;12.972;2022-10-22T05:11:17;8.50;;;5.93;;
10389;SDS011;5241;47.830;12.972;2022-10-22T05:13:45;10.70;;;6.07;;
10389;SDS011;5241;47.830;12.972;2022-10-22T05:16:11;8.27;;;5.67;;
10389;SDS011;5241;47.830;12.972;2022-10-22T05:18:38;8.37;;;5.50;;
10389;SDS011;5241;47.830;12.972;2022-10-22T05:21:09;9.10;;;6.37;;
10389;SDS011;5241;47.830;12.972;2022-10-22T05:23:43;7.97;;;5.67;;
10389;SDS011;5241;47.830;12.972;2022-10-22T05:26:10;9.50;;;6.30;;
10389;SDS011;5241;47.830;12.972;2022-10-22T05:28:37;9.63;;;5.97;;
10389;SDS011;5241;47.830;12.972;2022-10-22T05:31:04;7.67;;;6.30;;
10389;SDS011;5241;47.830;12.972;2022-10-22T05:33:31;9.50;;;6.17;;
10389;SDS011;5241;47.830;12.972;2022-10-22T05:35:58;8.83;;;6.30;;
10389;SDS011;5241;47.830;12.972;2022-10-22T05:38:24;8.97;;;6.87;;
10389;SDS011;5241;47.830;12.972;2022-10-22T05:43:45;6.90;;;5.93;;
10389;SDS011;5241;47.830;12.972;2022-10-22T05:46:12;8.53;;;5.67;;
10389;SDS011;5241;47.830;12.972;2022-10-22T05:48:42;8.90;;;6.00;;
10389;SDS011;5241;47.830;12.972;2022-10-22T05:51:09;6.47;;;5.23;;
10389;SDS011;5241;47.830;12.972;2022-10-22T05:53:37;9.77;;;5.63;;
10389;SDS011;5241;47.830;12.972;2022-10-22T05:56:06;8.03;;;5.93;;
10389;SDS011;5241;47.830;12.972;2022-10-22T05:58:36;11.80;;;10.10;;
10389;SDS011;5241;47.830;12.972;2022-10-22T06:01:03;10.33;;;7.37;;
10389;SDS011;5241;47.830;12.972;2022-10-22T06:03:29;8.03;;;5.83;;
10389;SDS011;5241;47.830;12.972;2022-10-22T06:05:55;7.53;;;6.03;;
10389;SDS011;5241;47.830;12.972;2022-10-22T06:08:23;7.70;;;6.10;;
10389;SDS011;5241;47.830;12.972;2022-10-22T06:10:49;9.10;;;6.20;;
10389;SDS011;5241;47.830;12.972;2022-10-22T06:13:14;10.77;;;5.73;;
10389;SDS011;5241;47.830;12.972;2022-10-22T06:15:40;6.53;;;5.07;;
10389;SDS011;5241;47.830;12.972;2022-10-22T06:18:05;5.60;;;5.03;;
10389;SDS011;5241;47.830;12.972;2022-10-22T06:20:32;6.90;;;5.13;;
10389;SDS011;5241;47.830;12.972;2022-10-22T06:22:59;6.67;;;5.47;;
10389;SDS011;5241;47.830;12.972;2022-10-22T06:25:24;9.13;;;5.30;;
10389;SDS011;5241;47.830;12.972;2022-10-22T06:27:50;7.07;;;4.90;;
10389;SDS011;5241;47.830;12.972;2022-10-22T06:30:16;6.53;;;4.40;;
10389;SDS011;5241;47.830;12.972;2022-10-22T06:32:41;5.37;;;4.20;;
10389;SDS011;5241;47.830;12.972;2022-10-22T06:35:07;8.20;;;6.27;;
10389;SDS011;5241;47.830;12.972;2022-10-22T06:37:33;4.57;;;3.47;;
10389;SDS011;5241;47.830;12.972;2022-10-22T06:39:58;3.90;;;3.50;;
10389;SDS011;5241;47.830;12.972;2022-10-22T06:42:24;5.07;;;3.60;;
10389;SDS011;5241;47.830;12.972;2022-10-22T06:44:49;5.87;;;3.47;;
10389;SDS011;5241;47.830;12.972;2022-10-22T06:47:15;6.27;;;3.10;;
10389;SDS011;5241;47.830;12.972;2022-10-22T06:49:40;3.70;;;3.30;;
10389;SDS011;5241;47.830;12.972;2022-10-22T06:52:06;6.10;;;4.57;;
10389;SDS011;5241;47.830;12.972;2022-10-22T06:54:32;6.07;;;4.00;;
10389;SDS011;5241;47.830;12.972;2022-10-22T06:56:57;5.63;;;3.47;;
10389;SDS011;5241;47.830;12.972;2022-10-22T06:59:23;5.00;;;3.77;;
10389;SDS011;5241;47.830;12.972;2022-10-22T07:01:48;4.70;;;2.97;;
10389;SDS011;5241;47.830;12.972;2022-10-22T07:04:14;5.93;;;3.20;;
10389;SDS011;5241;47.830;12.972;2022-10-22T07:06:40;3.93;;;2.80;;
10389;SDS011;5241;47.830;12.972;2022-10-22T07:09:05;4.47;;;2.40;;
10389;SDS011;5241;47.830;12.972;2022-10-22T07:11:43;3.57;;;2.50;;
10389;SDS011;5241;47.830;12.972;2022-10-22T07:14:10;4.23;;;2.77;;
10389;SDS011;5241;47.830;12.972;2022-10-22T07:16:36;3.50;;;3.00;;
10389;SDS011;5241;47.830;12.972;2022-10-22T07:19:02;3.20;;;2.90;;
10389;SDS011;5241;47.830;12.972;2022-10-22T07:21:29;3.83;;;3.20;;
10389;SDS011;5241;47.830;12.972;2022-10-22T07:23:54;4.23;;;3.70;;
10389;SDS011;5241;47.830;12.972;2022-10-22T07:26:20;5.63;;;4.03;;
10389;SDS011;5241;47.830;12.972;2022-10-22T07:28:49;5.67;;;3.87;;
10389;SDS011;5241;47.830;12.972;2022-10-22T07:31:15;4.07;;;3.50;;
10389;SDS011;5241;47.830;12.972;2022-10-22T07:33:41;4.20;;;3.33;;
10389;SDS011;5241;47.830;12.972;2022-10-22T07:36:08;4.77;;;3.60;;
10389;SDS011;5241;47.830;12.972;2022-10-22T07:38:36;5.97;;;3.40;;
10389;SDS011;5241;47.830;12.972;2022-10-22T07:41:01;5.70;;;3.40;;
10389;SDS011;5241;47.830;12.972;2022-10-22T07:43:27;6.20;;;3.23;;
10389;SDS011;5241;47.830;12.972;2022-10-22T07:45:53;3.80;;;3.23;;
10389;SDS011;5241;47.830;12.972;2022-10-22T07:48:23;4.13;;;2.90;;
10389;SDS011;5241;47.830;12.972;2022-10-22T07:50:49;4.57;;;3.20;;
10389;SDS011;5241;47.830;12.972;2022-10-22T07:53:15;5.33;;;3.23;;
10389;SDS011;5241;47.830;12.972;2022-10-22T07:55:41;4.47;;;3.17;;
10389;SDS011;5241;47.830;12.972;2022-10-22T07:58:06;4.73;;;3.00;;
10389;SDS011;5241;47.830;12.972;2022-10-22T08:00:32;4.53;;;2.70;;
10389;SDS011;5241;47.830;12.972;2022-10-22T08:02:58;2.70;;;2.00;;
10389;SDS011;5241;47.830;12.972;2022-10-22T08:05:23;2.40;;;1.97;;
10389;SDS011;5241;47.830;12.972;2022-10-22T08:07:49;5.13;;;2.37;;
10389;SDS011;5241;47.830;12.972;2022-10-22T08:10:15;2.83;;;2.40;;
10389;SDS011;5241;47.830;12.972;2022-10-22T08:12:40;3.13;;;2.60;;
10389;SDS011;5241;47.830;12.972;2022-10-22T08:15:06;3.70;;;2.60;;
10389;SDS011;5241;47.830;12.972;2022-10-22T08:17:32;2.67;;;2.30;;
10389;SDS011;5241;47.830;12.972;2022-10-22T08:19:58;5.87;;;2.13;;
10389;SDS011;5241;47.830;12.972;2022-10-22T08:22:23;2.17;;;1.90;;
10389;SDS011;5241;47.830;12.972;2022-10-22T08:24:49;8.33;;;2.47;;
10389;SDS011;5241;47.830;12.972;2022-10-22T08:27:15;3.53;;;2.50;;
10389;SDS011;5241;47.830;12.972;2022-10-22T08:29:40;3.30;;;2.43;;
10389;SDS011;5241;47.830;12.972;2022-10-22T08:32:06;2.73;;;2.23;;
10389;SDS011;5241;47.830;12.972;2022-10-22T08:34:31;3.77;;;2.40;;
10389;SDS011;5241;47.830;12.972;2022-10-22T08:36:57;2.10;;;1.90;;
10389;SDS011;5241;47.830;12.972;2022-10-22T08:39:23;2.43;;;2.00;;
10389;SDS011;5241;47.830;12.972;2022-10-22T08:44:59;6.80;;;4.10;;
10389;SDS011;5241;47.830;12.972;2022-10-22T08:47:31;3.83;;;3.00;;
10389;SDS011;5241;47.830;12.972;2022-10-22T08:50:02;6.10;;;3.13;;
10389;SDS011;5241;47.830;12.972;2022-10-22T08:52:28;4.10;;;2.70;;
10389;SDS011;5241;47.830;12.972;2022-10-22T08:55:00;3.27;;;2.93;;
10389;SDS011;5241;47.830;12.972;2022-10-22T09:08:25;3.93;;;2.70;;
10389;SDS011;5241;47.830;12.972;2022-10-22T09:10:53;3.93;;;2.53;;
10389;SDS011;5241;47.830;12.972;2022-10-22T09:13:25;3.27;;;2.60;;
10389;SDS011;5241;47.830;12.972;2022-10-22T09:15:52;3.57;;;2.63;;
10389;SDS011;5241;47.830;12.972;2022-10-22T09:27:13;2.73;;;2.20;;
10389;SDS011;5241;47.830;12.972;2022-10-22T09:29:45;2.50;;;2.20;;
10389;SDS011;5241;47.830;12.972;2022-10-22T09:32:12;2.83;;;2.40;;
10389;SDS011;5241;47.830;12.972;2022-10-22T09:34:38;2.10;;;1.90;;
10389;SDS011;5241;47.830;12.972;2022-10-22T09:37:06;3.87;;;2.00;;
10389;SDS011;5241;47.830;12.972;2022-10-22T09:42:03;3.13;;;2.17;;
10389;SDS011;5241;47.830;12.972;2022-10-22T09:44:31;3.93;;;1.93;;
10389;SDS011;5241;47.830;12.972;2022-10-22T09:46:59;2.20;;;1.70;;
10389;SDS011;5241;47.830;12.972;2022-10-22T09:49:28;1.97;;;1.40;;
10389;SDS011;5241;47.830;12.972;2022-10-22T09:51:57;2.27;;;1.50;;
10389;SDS011;5241;47.830;12.972;2022-10-22T09:54:25;2.00;;;1.50;;
10389;SDS011;5241;47.830;12.972;2022-10-22T09:57:16;3.10;;;1.70;;
10389;SDS011;5241;47.830;12.972;2022-10-22T09:59:47;2.17;;;1.50;;
10389;SDS011;5241;47.830;12.972;2022-10-22T10:02:20;3.10;;;1.33;;
10389;SDS011;5241;47.830;12.972;2022-10-22T10:04:48;1.87;;;1.10;;
10389;SDS011;5241;47.830;12.972;2022-10-22T10:07:18;2.50;;;1.70;;
10389;SDS011;5241;47.830;12.972;2022-10-22T10:09:49;1.43;;;1.13;;
10389;SDS011;5241;47.830;12.972;2022-10-22T10:20:27;3.37;;;1.80;;
10389;SDS011;5241;47.830;12.972;2022-10-22T10:23:15;4.07;;;3.33;;
10389;SDS011;5241;47.830;12.972;2022-10-22T10:30:49;1.93;;;1.40;;
10389;SDS011;5241;47.830;12.972;2022-10-22T10:33:39;2.23;;;1.97;;
10389;SDS011;5241;47.830;12.972;2022-10-22T10:42:09;2.30;;;1.73;;
10389;SDS011;5241;47.830;12.972;2022-10-22T10:45:11;2.27;;;1.87;;
10389;SDS011;5241;47.830;12.972;2022-10-22T10:53:32;2.30;;;2.00;;
10389;SDS011;5241;47.830;12.972;2022-10-22T11:01:58;3.00;;;2.23;;
10389;SDS011;5241;47.830;12.972;2022-10-22T11:07:37;3.73;;;2.17;;
10389;SDS011;5241;47.830;12.972;2022-10-22T11:13:10;2.53;;;2.13;;
10389;SDS011;5241;47.830;12.972;2022-10-22T11:15:51;4.13;;;1.93;;
10389;SDS011;5241;47.830;12.972;2022-10-22T11:18:42;3.60;;;2.00;;
10389;SDS011;5241;47.830;12.972;2022-10-22T11:24:11;3.60;;;2.03;;
10389;SDS011;5241;47.830;12.972;2022-10-22T11:27:00;6.73;;;2.03;;
10389;SDS011;5241;47.830;12.972;2022-10-22T11:29:36;2.13;;;1.70;;
10389;SDS011;5241;47.830;12.972;2022-10-22T11:32:18;3.70;;;1.80;;
10389;SDS011;5241;47.830;12.972;2022-10-22T11:34:49;2.80;;;2.00;;
10389;SDS011;5241;47.830;12.972;2022-10-22T11:37:18;4.07;;;2.30;;
10389;SDS011;5241;47.830;12.972;2022-10-22T11:39:58;4.27;;;3.10;;
10389;SDS011;5241;47.830;12.972;2022-10-22T11:42:33;3.67;;;2.77;;
10389;SDS011;5241;47.830;12.972;2022-10-22T11:45:46;3.70;;;2.57;;
10389;SDS011;5241;47.830;12.972;2022-10-22T11:55:50;4.13;;;3.73;;
10389;SDS011;5241;47.830;12.972;2022-10-22T11:58:27;6.73;;;4.43;;
10389;SDS011;5241;47.830;12.972;2022-10-22T12:08:29;7.53;;;4.10;;
10389;SDS011;5241;47.830;12.972;2022-10-22T12:11:03;5.80;;;4.20;;
10389;SDS011;5241;47.830;12.972;2022-10-22T12:16:22;5.77;;;4.47;;
10389;SDS011;5241;47.830;12.972;2022-10-22T12:18:52;5.87;;;3.90;;
10389;SDS011;5241;47.830;12.972;2022-10-22T12:21:22;6.30;;;4.77;;
10389;SDS011;5241;47.830;12.972;2022-10-22T12:23:48;5.90;;;5.13;;
10389;SDS011;5241;47.830;12.972;2022-10-22T12:26:21;4.13;;;3.50;;
10389;SDS011;5241;47.830;12.972;2022-10-22T12:28:55;4.90;;;2.70;;
10389;SDS011;5241;47.830;12.972;2022-10-22T12:31:25;2.20;;;2.00;;
10389;SDS011;5241;47.830;12.972;2022-10-22T12:33:54;6.50;;;2.43;;
10389;SDS011;5241;47.830;12.972;2022-10-22T12:36:21;3.60;;;2.30;;
10389;SDS011;5241;47.830;12.972;2022-10-22T12:38:46;3.30;;;2.50;;
10389;SDS011;5241;47.830;12.972;2022-10-22T12:41:12;3.27;;;2.30;;
10389;SDS011;5241;47.830;12.972;2022-10-22T12:43:38;2.50;;;2.30;;
10389;SDS011;5241;47.830;12.972;2022-10-22T12:46:04;3.73;;;2.60;;
10389;SDS011;5241;47.830;12.972;2022-10-22T12:48:41;3.27;;;2.53;;
10389;SDS011;5241;47.830;12.972;2022-10-22T12:51:12;4.80;;;2.17;;
10389;SDS011;5241;47.830;12.972;2022-10-22T12:53:52;3.43;;;2.20;;
10389;SDS011;5241;47.830;12.972;2022-10-22T12:56:21;8.00;;;6.50;;
10389;SDS011;5241;47.830;12.972;2022-10-22T13:01:24;6.77;;;5.13;;
10389;SDS011;5241;47.830;12.972;2022-10-22T13:06:41;4.80;;;4.30;;
10389;SDS011;5241;47.830;12.972;2022-10-22T13:09:13;6.20;;;3.00;;
10389;SDS011;5241;47.830;12.972;2022-10-22T13:11:55;3.50;;;2.70;;
10389;SDS011;5241;47.830;12.972;2022-10-22T13:14:32;2.40;;;2.20;;
10389;SDS011;5241;47.830;12.972;2022-10-22T13:22:04;4.97;;;2.47;;
10389;SDS011;5241;47.830;12.972;2022-10-22T13:24:48;2.77;;;2.30;;
10389;SDS011;5241;47.830;12.972;2022-10-22T13:27:15;2.57;;;2.10;;
10389;SDS011;5241;47.830;12.972;2022-10-22T13:29:41;3.23;;;2.30;;
10389;SDS011;5241;47.830;12.972;2022-10-22T13:34:56;4.03;;;2.00;;
10389;SDS011;5241;47.830;12.972;2022-10-22T13:37:26;3.37;;;1.77;;
10389;SDS011;5241;47.830;12.972;2022-10-22T13:39:54;2.13;;;1.47;;
10389;SDS011;5241;47.830;12.972;2022-10-22T13:42:20;2.03;;;1.60;;
10389;SDS011;5241;47.830;12.972;2022-10-22T13:44:45;3.23;;;2.30;;
10389;SDS011;5241;47.830;12.972;2022-10-22T13:47:16;4.53;;;2.03;;
10389;SDS011;5241;47.830;12.972;2022-10-22T13:49:52;2.07;;;1.80;;
10389;SDS011;5241;47.830;12.972;2022-10-22T13:54:53;2.33;;;1.80;;
10389;SDS011;5241;47.830;12.972;2022-10-22T13:57:19;1.97;;;1.40;;
10389;SDS011;5241;47.830;12.972;2022-10-22T13:59:44;2.53;;;1.80;;
10389;SDS011;5241;47.830;12.972;2022-10-22T14:02:10;1.53;;;1.30;;
10389;SDS011;5241;47.830;12.972;2022-10-22T14:04:38;2.93;;;1.30;;
10389;SDS011;5241;47.830;12.972;2022-10-22T14:07:11;2.47;;;1.30;;
10389;SDS011;5241;47.830;12.972;2022-10-22T14:09:38;1.67;;;1.37;;
10389;SDS011;5241;47.830;12.972;2022-10-22T14:12:11;1.77;;;1.30;;
10389;SDS011;5241;47.830;12.972;2022-10-22T14:14:38;2.37;;;1.60;;
10389;SDS011;5241;47.830;12.972;2022-10-22T14:17:04;2.03;;;1.73;;
10389;SDS011;5241;47.830;12.972;2022-10-22T14:19:30;2.00;;;1.30;;
10389;SDS011;5241;47.830;12.972;2022-10-22T14:21:56;4.70;;;1.10;;
10389;SDS011;5241;47.830;12.972;2022-10-22T14:24:21;1.73;;;1.10;;
10389;SDS011;5241;47.830;12.972;2022-10-22T14:26:47;1.30;;;1.20;;
10389;SDS011;5241;47.830;12.972;2022-10-22T14:29:13;4.10;;;1.53;;
10389;SDS011;5241;47.830;12.972;2022-10-22T14:31:39;1.50;;;1.40;;
10389;SDS011;5241;47.830;12.972;2022-10-22T14:34:05;1.60;;;1.50;;
10389;SDS011;5241;47.830;12.972;2022-10-22T14:36:34;2.37;;;1.30;;
10389;SDS011;5241;47.830;12.972;2022-10-22T14:38:59;17.93;;;10.40;;
10389;SDS011;5241;47.830;12.972;2022-10-22T14:41:25;43.93;;;16.13;;
10389;SDS011;5241;47.830;12.972;2022-10-22T14:43:53;8.93;;;4.33;;
10389;SDS011;5241;47.830;12.972;2022-10-22T14:46:19;1.83;;;1.40;;
10389;SDS011;5241;47.830;12.972;2022-10-22T14:48:45;2.00;;;1.40;;
10389;SDS011;5241;47.830;12.972;2022-10-22T14:51:12;1.73;;;1.30;;
10389;SDS011;5241;47.830;12.972;2022-10-22T14:53:39;2.10;;;1.50;;
10389;SDS011;5241;47.830;12.972;2022-10-22T14:56:05;5.93;;;1.40;;
10389;SDS011;5241;47.830;12.972;2022-10-22T14:58:31;1.30;;;1.20;;
10389;SDS011;5241;47.830;12.972;2022-10-22T15:00:56;1.50;;;1.20;;
10389;SDS011;5241;47.830;12.972;2022-10-22T15:03:22;1.77;;;1.40;;
10389;SDS011;5241;47.830;12.972;2022-10-22T15:05:49;2.37;;;1.50;;
10389;SDS011;5241;47.830;12.972;2022-10-22T15:08:17;4.00;;;1.30;;
10389;SDS011;5241;47.830;12.972;2022-10-22T15:10:43;2.90;;;1.97;;
10389;SDS011;5241;47.830;12.972;2022-10-22T15:13:09;2.53;;;1.50;;
10389;SDS011;5241;47.830;12.972;2022-10-22T15:15:35;1.70;;;1.07;;
10389;SDS011;5241;47.830;12.972;2022-10-22T15:18:03;1.40;;;1.27;;
10389;SDS011;5241;47.830;12.972;2022-10-22T15:20:28;3.00;;;1.43;;
10389;SDS011;5241;47.830;12.972;2022-10-22T15:22:54;4.37;;;1.57;;
10389;SDS011;5241;47.830;12.972;2022-10-22T15:25:20;2.03;;;1.70;;
10389;SDS011;5241;47.830;12.972;2022-10-22T15:27:47;1.40;;;1.30;;
10389;SDS011;5241;47.830;12.972;2022-10-22T15:30:12;2.17;;;1.50;;
10389;SDS011;5241;47.830;12.972;2022-10-22T15:32:38;1.70;;;1.60;;
10389;SDS011;5241;47.830;12.972;2022-10-22T15:35:04;1.90;;;1.53;;
10389;SDS011;5241;47.830;12.972;2022-10-22T15:37:30;2.50;;;1.60;;
10389;SDS011;5241;47.830;12.972;2022-10-22T15:39:55;3.40;;;2.30;;
10389;SDS011;5241;47.830;12.972;2022-10-22T15:42:21;2.43;;;1.80;;
10389;SDS011;5241;47.830;12.972;2022-10-22T15:44:47;3.43;;;1.70;;
10389;SDS011;5241;47.830;12.972;2022-10-22T15:47:13;2.00;;;1.80;;
10389;SDS011;5241;47.830;12.972;2022-10-22T15:49:39;2.70;;;1.77;;
10389;SDS011;5241;47.830;12.972;2022-10-22T15:52:05;2.93;;;1.83;;
10389;SDS011;5241;47.830;12.972;2022-10-22T15:54:32;2.87;;;1.80;;
10389;SDS011;5241;47.830;12.972;2022-10-22T15:56:59;2.67;;;2.00;;
10389;SDS011;5241;47.830;12.972;2022-10-22T15:59:32;2.90;;;2.10;;
10389;SDS011;5241;47.830;12.972;2022-10-22T16:01:58;1.73;;;1.60;;
10389;SDS011;5241;47.830;12.972;2022-10-22T16:04:23;2.67;;;2.00;;
10389;SDS011;5241;47.830;12.972;2022-10-22T16:06:50;3.00;;;2.00;;
10389;SDS011;5241;47.830;12.972;2022-10-22T16:09:18;2.10;;;1.70;;
10389;SDS011;5241;47.830;12.972;2022-10-22T16:11:48;1.97;;;1.77;;
10389;SDS011;5241;47.830;12.972;2022-10-22T16:14:16;5.43;;;2.83;;
10389;SDS011;5241;47.830;12.972;2022-10-22T16:16:45;4.33;;;2.53;;
10389;SDS011;5241;47.830;12.972;2022-10-22T16:19:16;3.50;;;2.33;;
10389;SDS011;5241;47.830;12.972;2022-10-22T16:21:43;2.87;;;2.50;;
10389;SDS011;5241;47.830;12.972;2022-10-22T16:24:08;3.87;;;2.50;;
10389;SDS011;5241;47.830;12.972;2022-10-22T16:26:35;4.73;;;3.70;;
10389;SDS011;5241;47.830;12.972;2022-10-22T16:29:01;6.00;;;3.57;;
10389;SDS011;5241;47.830;12.972;2022-10-22T16:31:27;4.27;;;3.07;;
10389;SDS011;5241;47.830;12.972;2022-10-22T16:33:53;5.17;;;3.23;;
10389;SDS011;5241;47.830;12.972;2022-10-22T16:36:19;7.53;;;3.20;;
10389;SDS011;5241;47.830;12.972;2022-10-22T16:38:45;4.43;;;3.27;;
10389;SDS011;5241;47.830;12.972;2022-10-22T16:41:15;5.17;;;3.00;;
10389;SDS011;5241;47.830;12.972;2022-10-22T16:43:42;4.50;;;3.27;;
10389;SDS011;5241;47.830;12.972;2022-10-22T16:46:09;4.83;;;3.00;;
10389;SDS011;5241;47.830;12.972;2022-10-22T16:48:35;3.43;;;3.13;;
10389;SDS011;5241;47.830;12.972;2022-10-22T16:51:07;6.03;;;3.90;;
10389;SDS011;5241;47.830;12.972;2022-10-22T16:53:34;10.23;;;3.57;;